Time;durP1;ratioP1;P1;durP2;ratioP2;P2;SDS_P1;SDS_P2;PMS_P1;PMS_P2;Temp;Humidity;BMP_temperature;BMP_pressure;BME280_temperature;BME280_humidity;BME280_pressure;Samples;Min_cycle;Max_cycle;Signal;HPM_P1;HPM_P2
2022/03/26 00:01:23;;;;;;;134.68;74.28;;;5.10;85.60;;;;;;5015478;28;20135;-43
2022/03/26 00:03:57;;;;;;;134.38;75.50;;;5.10;85.60;;;;;;5014263;28;20030;-43
2022/03/26 00:06:25;;;;;;;133.02;72.38;;;5.10;85.80;;;;;;5015384;28;20037;-45
2022/03/26 00:08:52;;;;;;;124.28;67.55;;;5.00;85.70;;;;;;5015387;28;20034;-48
2022/03/26 00:11:22;;;;;;;132.07;69.03;;;5.10;85.80;;;;;;5012227;28;20069;-47
2022/03/26 00:13:49;;;;;;;125.47;70.00;;;5.00;85.60;;;;;;5012696;28;20062;-42
2022/03/26 00:16:14;;;;;;;128.65;69.80;;;5.00;85.60;;;;;;5012863;28;20358;-42
2022/03/26 00:18:40;;;;;;;136.05;75.47;;;5.00;85.90;;;;;;5012022;28;20212;-44
2022/03/26 00:21:06;;;;;;;127.88;69.18;;;5.00;85.70;;;;;;5012317;28;20414;-44
2022/03/26 00:23:33;;;;;;;133.05;69.40;;;5.00;85.70;;;;;;5011217;28;20040;-42
2022/03/26 00:26:00;;;;;;;127.32;73.47;;;5.00;85.80;;;;;;5011407;28;20041;-44
2022/03/26 00:28:29;;;;;;;127.40;71.57;;;5.00;85.90;;;;;;5011551;28;20096;-43
2022/03/26 00:30:54;;;;;;;147.93;77.72;;;5.00;85.90;;;;;;5011273;28;20117;-42
2022/03/26 00:33:22;;;;;;;131.13;69.72;;;5.00;86.00;;;;;;5012086;28;20109;-42
2022/03/26 00:35:50;;;;;;;136.23;76.03;;;5.00;86.10;;;;;;5010531;28;20355;-47
2022/03/26 00:38:17;;;;;;;143.90;76.28;;;5.00;86.10;;;;;;4992855;28;20022;-43
2022/03/26 00:40:43;;;;;;;142.38;77.43;;;4.90;86.10;;;;;;5022902;28;20448;-45
2022/03/26 00:43:11;;;;;;;144.70;74.88;;;5.00;86.30;;;;;;5011774;28;20096;-43
2022/03/26 00:45:39;;;;;;;139.68;73.90;;;4.90;86.40;;;;;;5012220;28;20414;-41
2022/03/26 00:48:06;;;;;;;139.10;72.32;;;4.90;86.40;;;;;;5011485;28;20036;-42
2022/03/26 00:50:35;;;;;;;148.32;80.15;;;5.00;86.40;;;;;;5012251;28;20125;-45
2022/03/26 00:53:04;;;;;;;147.80;79.25;;;5.00;86.40;;;;;;5011920;28;20261;-44
2022/03/26 00:55:36;;;;;;;149.48;79.03;;;5.10;86.40;;;;;;5010710;28;20729;-44
2022/03/26 00:58:02;;;;;;;148.15;76.70;;;5.10;86.40;;;;;;5011959;28;20387;-43
2022/03/26 01:00:30;;;;;;;161.75;82.00;;;5.10;86.40;;;;;;5011881;28;20068;-44
2022/03/26 01:02:58;;;;;;;156.48;82.53;;;5.10;86.40;;;;;;5011689;28;20040;-42
2022/03/26 01:05:26;;;;;;;152.85;78.30;;;5.20;86.40;;;;;;5011941;28;20065;-45
2022/03/26 01:07:53;;;;;;;156.25;77.97;;;5.20;86.30;;;;;;5011969;28;20351;-42
2022/03/26 01:10:20;;;;;;;146.50;80.00;;;5.20;86.30;;;;;;5010501;28;20022;-43
2022/03/26 01:12:48;;;;;;;139.80;79.18;;;5.20;86.30;;;;;;5011205;28;20030;-41
2022/03/26 01:15:15;;;;;;;152.68;79.68;;;5.20;86.10;;;;;;5011240;28;20021;-42
2022/03/26 01:17:40;;;;;;;147.75;77.13;;;5.20;86.10;;;;;;5010396;28;20060;-41
2022/03/26 01:20:08;;;;;;;148.05;78.75;;;5.20;86.10;;;;;;5011590;28;20061;-42
2022/03/26 01:22:36;;;;;;;149.93;78.35;;;5.20;86.00;;;;;;5011483;28;20149;-42
2022/03/26 01:25:04;;;;;;;153.85;80.22;;;5.10;86.10;;;;;;5011150;28;20022;-41
2022/03/26 01:27:32;;;;;;;142.32;78.55;;;5.10;86.10;;;;;;5011552;28;20049;-42
2022/03/26 01:29:58;;;;;;;147.52;78.90;;;5.10;86.20;;;;;;5011391;28;20392;-41
2022/03/26 01:32:26;;;;;;;144.13;78.07;;;5.00;86.20;;;;;;5011527;28;20045;-41
2022/03/26 01:34:52;;;;;;;151.43;79.30;;;5.00;86.20;;;;;;5010606;28;20025;-43
2022/03/26 01:37:23;;;;;;;142.00;77.13;;;5.10;86.20;;;;;;5010313;28;20053;-42
2022/03/26 01:39:54;;;;;;;140.10;76.75;;;5.00;86.20;;;;;;5011497;28;20033;-41
2022/03/26 01:42:20;;;;;;;143.05;75.93;;;5.00;86.10;;;;;;5009979;28;20381;-42
2022/03/26 01:44:47;;;;;;;139.15;74.72;;;5.00;85.90;;;;;;5009227;28;20030;-42
2022/03/26 01:47:14;;;;;;;139.57;76.10;;;5.00;85.90;;;;;;5006241;28;20037;-42
2022/03/26 01:49:42;;;;;;;133.35;73.00;;;5.00;85.80;;;;;;5010880;28;20054;-41
2022/03/26 01:52:10;;;;;;;134.85;72.00;;;4.90;85.80;;;;;;5011192;28;20029;-41
2022/03/26 01:54:39;;;;;;;142.55;76.80;;;4.90;85.80;;;;;;5010609;28;20030;-41
2022/03/26 01:57:10;;;;;;;136.82;74.88;;;4.90;85.90;;;;;;5011072;28;20072;-43
2022/03/26 01:59:43;;;;;;;135.88;73.72;;;4.90;86.00;;;;;;5009544;28;20040;-41
2022/03/26 02:02:12;;;;;;;140.40;76.03;;;4.90;86.00;;;;;;5010195;28;20042;-41
2022/03/26 02:04:39;;;;;;;137.68;73.97;;;4.90;86.00;;;;;;5009740;28;20463;-42
2022/03/26 02:07:06;;;;;;;144.82;76.75;;;4.90;86.00;;;;;;4998406;28;20045;-43
2022/03/26 02:09:36;;;;;;;149.10;78.00;;;4.90;86.10;;;;;;5010567;28;20721;-41
2022/03/26 02:12:21;;;;;;;140.82;77.72;;;4.90;86.10;;;;;;5009703;28;20046;-41
2022/03/26 02:14:46;;;;;;;142.75;72.45;;;4.90;86.10;;;;;;5008997;28;20363;-41
2022/03/26 02:17:14;;;;;;;137.88;72.95;;;4.90;86.10;;;;;;5010172;28;20034;-43
2022/03/26 02:19:43;;;;;;;144.00;73.93;;;4.90;86.00;;;;;;5009616;28;20049;-42
2022/03/26 02:22:09;;;;;;;129.43;71.03;;;4.90;86.00;;;;;;5010694;28;20032;-41
2022/03/26 02:24:36;;;;;;;137.20;73.88;;;4.90;85.90;;;;;;5009956;28;20034;-41
2022/03/26 02:27:08;;;;;;;134.88;72.43;;;4.90;85.80;;;;;;5010605;28;20026;-41
2022/03/26 02:29:36;;;;;;;138.35;72.45;;;4.80;85.60;;;;;;4993202;28;20033;-42
2022/03/26 02:32:03;;;;;;;131.45;73.18;;;4.80;85.70;;;;;;5010577;28;20116;-41
2022/03/26 02:34:31;;;;;;;132.57;71.18;;;4.70;85.70;;;;;;4993127;28;20540;-41
2022/03/26 02:36:59;;;;;;;126.07;71.47;;;4.60;85.60;;;;;;5010105;28;20052;-41
2022/03/26 02:39:27;;;;;;;138.55;71.50;;;4.60;85.70;;;;;;5008494;28;20038;-41
2022/03/26 02:41:57;;;;;;;132.68;71.80;;;4.60;85.70;;;;;;5010937;28;20052;-41
2022/03/26 02:44:26;;;;;;;117.90;66.95;;;4.60;85.60;;;;;;5009767;28;20467;-41
2022/03/26 02:46:55;;;;;;;127.80;70.28;;;4.60;85.70;;;;;;5009928;28;20037;-41
2022/03/26 02:49:21;;;;;;;138.00;72.57;;;4.50;85.60;;;;;;5010145;28;20046;-42
2022/03/26 02:51:48;;;;;;;123.32;69.55;;;4.50;85.70;;;;;;5010099;28;20560;-43
2022/03/26 02:54:18;;;;;;;125.18;65.47;;;4.50;85.60;;;;;;5010006;28;20041;-41
2022/03/26 02:56:54;;;;;;;121.53;69.38;;;4.50;85.70;;;;;;5009945;28;20112;-41
2022/03/26 02:59:21;;;;;;;127.07;67.57;;;4.50;85.70;;;;;;4992835;28;20026;-42
2022/03/26 03:01:48;;;;;;;132.75;66.03;;;4.50;85.60;;;;;;5009025;28;20499;-42
2022/03/26 03:04:14;;;;;;;123.03;68.10;;;4.40;85.60;;;;;;5009854;28;20022;-41
2022/03/26 03:06:40;;;;;;;125.00;69.22;;;4.40;85.80;;;;;;5009038;28;20353;-42
2022/03/26 03:09:09;;;;;;;118.07;62.25;;;4.40;85.80;;;;;;4991716;28;20500;-41
2022/03/26 03:11:36;;;;;;;140.23;70.18;;;4.40;85.70;;;;;;4992459;28;20120;-41
2022/03/26 03:14:13;;;;;;;130.30;67.60;;;4.40;85.80;;;;;;5008888;28;20129;-41
2022/03/26 03:16:43;;;;;;;133.82;70.85;;;4.30;85.70;;;;;;5009904;28;20406;-41
2022/03/26 03:19:10;;;;;;;128.18;68.10;;;4.30;85.70;;;;;;5008607;28;20433;-41
2022/03/26 03:21:36;;;;;;;128.95;67.25;;;4.20;85.80;;;;;;5008981;28;20065;-42
2022/03/26 03:24:03;;;;;;;130.50;69.47;;;4.20;85.80;;;;;;5008604;28;20028;-44
2022/03/26 03:26:31;;;;;;;128.88;67.72;;;4.30;85.90;;;;;;5009225;28;20037;-42
2022/03/26 03:28:59;;;;;;;138.05;70.15;;;4.30;85.90;;;;;;5009632;28;20018;-43
2022/03/26 03:31:28;;;;;;;127.10;72.10;;;4.30;85.90;;;;;;4990339;28;20372;-41
2022/03/26 03:33:55;;;;;;;140.68;73.65;;;4.20;85.80;;;;;;4995746;28;20092;-41
2022/03/26 03:36:21;;;;;;;129.52;69.80;;;4.20;85.70;;;;;;5009714;28;20038;-41
2022/03/26 03:38:49;;;;;;;129.90;69.15;;;4.20;85.90;;;;;;5009169;28;20092;-41
2022/03/26 03:41:17;;;;;;;128.75;71.45;;;4.20;85.80;;;;;;5009293;28;20451;-41
2022/03/26 03:43:44;;;;;;;125.20;69.60;;;4.20;85.80;;;;;;5008652;28;20030;-40
2022/03/26 03:46:13;;;;;;;141.20;75.75;;;4.20;85.70;;;;;;5010060;28;20394;-41
2022/03/26 03:48:39;;;;;;;125.05;69.07;;;4.20;86.00;;;;;;5013206;28;20030;-44
2022/03/26 03:51:07;;;;;;;134.50;71.22;;;4.20;86.00;;;;;;5013319;28;20053;-41
2022/03/26 03:53:34;;;;;;;140.50;74.70;;;4.20;86.10;;;;;;5012428;28;20048;-40
2022/03/26 03:56:02;;;;;;;146.07;74.05;;;4.10;86.00;;;;;;5012144;28;20034;-41
2022/03/26 03:58:29;;;;;;;138.00;69.93;;;4.10;86.50;;;;;;5012665;28;20073;-41
2022/03/26 04:00:56;;;;;;;139.90;73.82;;;4.20;86.60;;;;;;5012997;28;20084;-40
2022/03/26 04:03:23;;;;;;;134.43;69.30;;;4.20;86.50;;;;;;5012869;28;20041;-41
2022/03/26 04:05:50;;;;;;;140.50;72.20;;;4.30;86.50;;;;;;5012783;28;20030;-41
2022/03/26 04:08:19;;;;;;;139.50;70.68;;;4.20;86.30;;;;;;5012287;28;20026;-41
2022/03/26 04:10:47;;;;;;;143.13;75.70;;;4.20;86.30;;;;;;5012854;28;20057;-41
2022/03/26 04:13:13;;;;;;;141.85;71.43;;;4.10;86.40;;;;;;5012410;28;20083;-42
2022/03/26 04:15:40;;;;;;;138.35;76.13;;;4.10;86.40;;;;;;5012426;28;20037;-41
2022/03/26 04:18:11;;;;;;;142.70;76.30;;;4.20;86.40;;;;;;5012878;28;20054;-41
2022/03/26 04:20:37;;;;;;;138.30;70.10;;;4.20;86.50;;;;;;5012746;28;20352;-42
2022/03/26 04:23:03;;;;;;;141.57;72.32;;;4.20;86.50;;;;;;5011724;28;20454;-42
2022/03/26 04:25:31;;;;;;;131.70;67.72;;;4.20;86.50;;;;;;5011886;28;20148;-40
2022/03/26 04:28:02;;;;;;;136.35;70.15;;;4.20;86.50;;;;;;5013133;28;20345;-40
2022/03/26 04:30:30;;;;;;;127.25;69.43;;;4.20;86.60;;;;;;5012569;28;20475;-44
2022/03/26 04:32:55;;;;;;;134.70;70.38;;;4.20;86.50;;;;;;5012513;28;20034;-40
2022/03/26 04:35:22;;;;;;;137.77;70.53;;;4.20;86.60;;;;;;5010668;28;20100;-40
2022/03/26 04:37:55;;;;;;;128.80;68.70;;;4.20;86.60;;;;;;5012150;28;20045;-41
2022/03/26 04:40:26;;;;;;;137.32;70.10;;;4.20;86.60;;;;;;5012072;28;20022;-40
2022/03/26 04:42:55;;;;;;;143.55;73.63;;;4.20;86.60;;;;;;4995309;28;20076;-40
2022/03/26 04:45:23;;;;;;;138.73;69.82;;;4.20;86.60;;;;;;5012139;28;20041;-40
2022/03/26 04:47:49;;;;;;;129.23;69.45;;;4.20;86.50;;;;;;5011601;28;20101;-41
2022/03/26 04:50:17;;;;;;;125.30;66.22;;;4.20;86.40;;;;;;5007453;28;20058;-41
2022/03/26 04:52:44;;;;;;;127.65;71.18;;;4.20;86.40;;;;;;5011639;28;20026;-41
2022/03/26 04:55:12;;;;;;;140.82;70.95;;;4.10;86.30;;;;;;5011931;28;20113;-43
2022/03/26 04:57:53;;;;;;;128.77;67.47;;;4.00;86.20;;;;;;5009950;28;20034;-41
2022/03/26 05:00:19;;;;;;;131.30;68.22;;;4.00;86.40;;;;;;5009451;28;20037;-40
2022/03/26 05:02:46;;;;;;;138.93;70.80;;;4.00;86.40;;;;;;5010879;28;20022;-41
2022/03/26 05:05:13;;;;;;;137.48;70.90;;;4.00;86.60;;;;;;5010679;28;20450;-40
2022/03/26 05:07:46;;;;;;;133.75;69.22;;;4.00;86.70;;;;;;5010312;28;20030;-42
2022/03/26 05:10:27;;;;;;;131.90;66.78;;;4.00;86.70;;;;;;5010385;28;20029;-40
2022/03/26 05:12:54;;;;;;;141.02;70.75;;;4.00;86.90;;;;;;5008227;28;20099;-41
2022/03/26 05:15:23;;;;;;;144.20;73.55;;;4.00;87.00;;;;;;5010422;28;20037;-40
2022/03/26 05:17:51;;;;;;;139.20;72.97;;;4.00;87.00;;;;;;4977495;28;20490;-40
2022/03/26 05:20:20;;;;;;;141.98;72.07;;;4.10;87.10;;;;;;4994659;28;20046;-40
2022/03/26 05:22:47;;;;;;;146.97;71.40;;;4.00;87.10;;;;;;5010709;28;20395;-40
2022/03/26 05:25:14;;;;;;;142.57;74.63;;;4.10;87.10;;;;;;5010282;28;20045;-41
2022/03/26 05:27:47;;;;;;;130.70;72.22;;;4.10;87.10;;;;;;4993912;28;20037;-40
2022/03/26 05:30:13;;;;;;;132.10;69.68;;;4.00;87.00;;;;;;5009886;28;20107;-40
2022/03/26 05:32:40;;;;;;;127.07;67.90;;;4.00;87.00;;;;;;5011413;28;20033;-43
2022/03/26 05:35:11;;;;;;;147.82;72.53;;;4.00;87.00;;;;;;5011229;28;20120;-43
2022/03/26 05:37:44;;;;;;;141.45;71.97;;;4.00;87.00;;;;;;5010420;28;20085;-41
2022/03/26 05:40:21;;;;;;;135.07;69.90;;;4.10;87.00;;;;;;5010373;28;20030;-40
2022/03/26 05:42:49;;;;;;;136.88;72.50;;;4.10;87.00;;;;;;5011210;28;20109;-42
2022/03/26 05:45:17;;;;;;;141.02;72.20;;;4.10;87.20;;;;;;5011468;28;20084;-41
2022/03/26 05:47:43;;;;;;;135.93;70.20;;;4.20;87.20;;;;;;5011152;28;20033;-40
2022/03/26 05:50:12;;;;;;;140.88;72.50;;;4.30;87.20;;;;;;5009793;28;20037;-42
2022/03/26 05:52:38;;;;;;;138.15;74.10;;;4.30;87.30;;;;;;5010073;28;20083;-41
2022/03/26 05:55:07;;;;;;;142.27;71.72;;;4.40;87.10;;;;;;5011091;28;20037;-42
2022/03/26 05:57:34;;;;;;;139.38;74.03;;;4.50;87.20;;;;;;5010234;28;20026;-41
2022/03/26 06:00:01;;;;;;;135.63;71.00;;;4.50;87.20;;;;;;5009562;28;20030;-42
2022/03/26 06:02:30;;;;;;;139.85;72.57;;;4.50;87.20;;;;;;5009876;28;20072;-40
2022/03/26 06:04:58;;;;;;;130.05;72.00;;;4.60;87.20;;;;;;5009407;28;20432;-42
2022/03/26 06:07:25;;;;;;;134.63;70.07;;;4.60;87.00;;;;;;5008838;28;20037;-40
2022/03/26 06:09:53;;;;;;;145.57;72.47;;;4.60;87.10;;;;;;5009420;28;20033;-40
2022/03/26 06:12:19;;;;;;;123.43;71.55;;;4.60;86.90;;;;;;5008492;28;20026;-42
2022/03/26 06:14:48;;;;;;;134.48;72.78;;;4.70;87.00;;;;;;5008794;28;20356;-43
2022/03/26 06:17:15;;;;;;;136.43;73.47;;;4.70;87.00;;;;;;5009082;28;20459;-43
2022/03/26 06:19:44;;;;;;;132.20;72.80;;;4.80;87.00;;;;;;5010346;28;20677;-40
2022/03/26 06:22:11;;;;;;;144.80;75.28;;;4.80;87.00;;;;;;5010097;28;20045;-40
2022/03/26 06:24:39;;;;;;;130.07;71.43;;;4.90;87.10;;;;;;5007670;28;20116;-42
2022/03/26 06:27:07;;;;;;;136.95;71.22;;;5.00;87.00;;;;;;5009786;28;20029;-43
2022/03/26 06:29:34;;;;;;;126.28;69.15;;;5.10;87.10;;;;;;5010510;28;20025;-40
2022/03/26 06:32:03;;;;;;;132.85;72.32;;;5.10;87.20;;;;;;4992761;28;20467;-44
2022/03/26 06:34:31;;;;;;;124.90;69.82;;;5.20;87.20;;;;;;5007136;28;20422;-45
2022/03/26 06:36:58;;;;;;;143.70;76.40;;;5.30;87.30;;;;;;5009933;28;20091;-41
2022/03/26 06:39:24;;;;;;;127.90;72.43;;;5.40;87.60;;;;;;5009383;28;20097;-43
2022/03/26 06:41:50;;;;;;;140.57;73.03;;;5.50;87.70;;;;;;5008408;28;20105;-40
2022/03/26 06:44:16;;;;;;;133.35;72.20;;;5.60;87.80;;;;;;5009141;28;20034;-40
2022/03/26 06:46:42;;;;;;;134.85;72.85;;;5.70;87.80;;;;;;5008318;28;20045;-40
2022/03/26 06:49:09;;;;;;;139.10;76.22;;;5.90;88.00;;;;;;5008681;28;20048;-41
2022/03/26 06:51:38;;;;;;;128.98;73.32;;;6.00;88.00;;;;;;5009033;28;20037;-41
2022/03/26 06:54:05;;;;;;;135.65;76.60;;;6.20;87.90;;;;;;5009815;28;20049;-40
2022/03/26 06:56:33;;;;;;;125.78;73.28;;;6.40;87.80;;;;;;5008575;28;20030;-41
2022/03/26 06:59:00;;;;;;;131.57;74.47;;;6.50;87.80;;;;;;5009933;28;20088;-40
2022/03/26 07:01:28;;;;;;;122.00;71.20;;;6.70;87.50;;;;;;5008492;28;20026;-40
2022/03/26 07:03:54;;;;;;;121.53;70.55;;;6.70;87.40;;;;;;5024127;28;20030;-42
2022/03/26 07:06:23;;;;;;;120.60;70.60;;;6.90;87.30;;;;;;5009033;28;20044;-43
2022/03/26 07:08:50;;;;;;;120.22;72.65;;;6.90;87.00;;;;;;5008892;28;20033;-44
2022/03/26 07:11:17;;;;;;;124.20;72.03;;;7.10;87.10;;;;;;4992480;28;20034;-41
2022/03/26 07:13:46;;;;;;;120.45;70.50;;;7.20;86.90;;;;;;5010127;28;20030;-40
2022/03/26 07:16:14;;;;;;;111.63;70.38;;;7.30;86.70;;;;;;5009318;28;20091;-41
2022/03/26 07:18:40;;;;;;;116.63;66.70;;;7.40;86.90;;;;;;5008691;28;20062;-43
2022/03/26 07:21:08;;;;;;;112.90;69.55;;;7.50;87.00;;;;;;5010983;28;20026;-41
2022/03/26 07:23:36;;;;;;;107.55;65.95;;;7.70;86.90;;;;;;5013690;28;20035;-42
2022/03/26 07:26:04;;;;;;;105.57;65.60;;;7.90;87.00;;;;;;5013171;28;20045;-40
2022/03/26 07:28:32;;;;;;;98.68;61.33;;;8.00;87.00;;;;;;5027984;28;20029;-41
2022/03/26 07:31:00;;;;;;;100.47;63.65;;;8.10;87.10;;;;;;5012838;28;20097;-41
2022/03/26 07:33:27;;;;;;;98.65;60.75;;;8.30;87.10;;;;;;5011698;28;20044;-45
2022/03/26 07:35:54;;;;;;;98.45;60.78;;;8.50;87.20;;;;;;5010711;28;20062;-43
2022/03/26 07:38:20;;;;;;;81.25;53.45;;;8.90;87.40;;;;;;5011196;28;20029;-43
2022/03/26 07:40:47;;;;;;;77.18;53.15;;;9.10;86.80;;;;;;5013128;28;20026;-44
2022/03/26 07:43:15;;;;;;;72.57;50.40;;;9.20;86.30;;;;;;5012575;28;20053;-44
2022/03/26 07:45:41;;;;;;;73.40;48.53;;;9.50;85.70;;;;;;5009838;28;21213;-44
2022/03/26 07:48:08;;;;;;;51.95;36.17;;;9.90;85.10;;;;;;5010832;28;20026;-44
2022/03/26 07:50:35;;;;;;;43.72;31.35;;;10.30;84.20;;;;;;5012754;28;20436;-45
2022/03/26 07:53:02;;;;;;;33.67;25.17;;;10.70;82.80;;;;;;5012546;28;20026;-42
2022/03/26 07:55:31;;;;;;;36.35;26.27;;;10.90;80.50;;;;;;5011270;28;20036;-46
2022/03/26 07:57:58;;;;;;;36.28;25.17;;;11.20;79.70;;;;;;5011192;28;20030;-43
2022/03/26 08:00:28;;;;;;;33.90;25.23;;;11.30;78.40;;;;;;5011846;28;20067;-43
2022/03/26 08:02:54;;;;;;;32.92;25.98;;;11.50;78.10;;;;;;5012021;28;20351;-45
2022/03/26 08:05:21;;;;;;;32.50;25.73;;;11.70;77.50;;;;;;5011647;28;20033;-43
2022/03/26 08:07:47;;;;;;;31.23;22.67;;;11.90;77.30;;;;;;5012842;28;20029;-44
2022/03/26 08:10:14;;;;;;;27.73;22.70;;;12.00;76.20;;;;;;5012501;28;20030;-45
2022/03/26 08:12:42;;;;;;;28.95;23.42;;;12.10;75.30;;;;;;5011264;28;20030;-48
2022/03/26 08:15:08;;;;;;;29.40;22.00;;;12.40;75.40;;;;;;5012468;28;20029;-46
2022/03/26 08:17:35;;;;;;;25.90;21.35;;;12.70;74.30;;;;;;5011585;28;20395;-44
2022/03/26 08:20:02;;;;;;;30.65;23.25;;;13.00;73.80;;;;;;5013095;28;20333;-44
2022/03/26 08:22:28;;;;;;;24.55;20.50;;;13.10;72.30;;;;;;4978280;28;20068;-44
2022/03/26 08:24:58;;;;;;;24.95;21.02;;;13.30;72.30;;;;;;5012337;28;20467;-45
2022/03/26 08:27:24;;;;;;;25.80;20.15;;;13.20;71.40;;;;;;5012182;28;20121;-44
2022/03/26 08:29:52;;;;;;;21.30;17.17;;;13.20;71.80;;;;;;5012146;28;20037;-44
2022/03/26 08:32:22;;;;;;;23.05;19.35;;;13.30;71.10;;;;;;5011041;28;20030;-44
2022/03/26 08:34:48;;;;;;;;;;;13.20;71.40;;;;;;5011728;28;20030;-44
2022/03/26 08:37:15;;;;;;;20.17;17.30;;;13.30;71.10;;;;;;5012025;28;19913;-44
2022/03/26 08:39:43;;;;;;;21.65;16.98;;;13.10;71.30;;;;;;5011435;28;20021;-45
2022/03/26 08:42:10;;;;;;;22.85;18.52;;;12.90;72.20;;;;;;5011936;28;20034;-44
2022/03/26 08:44:36;;;;;;;21.23;15.65;;;13.10;72.40;;;;;;5011644;28;20026;-44
2022/03/26 08:47:06;;;;;;;21.08;15.35;;;13.30;70.80;;;;;;5011615;28;20044;-44
2022/03/26 08:49:34;;;;;;;24.35;16.77;;;13.30;70.70;;;;;;5012427;28;20084;-45
2022/03/26 08:52:01;;;;;;;18.85;13.63;;;13.60;70.70;;;;;;5011724;28;20088;-45
2022/03/26 08:54:28;;;;;;;16.50;12.40;;;13.70;69.00;;;;;;5011219;28;20041;-44
2022/03/26 08:56:54;;;;;;;16.10;12.48;;;13.80;69.10;;;;;;5011306;28;20033;-44
2022/03/26 08:59:23;;;;;;;16.50;12.02;;;13.80;68.30;;;;;;5012183;28;20061;-44
2022/03/26 09:01:53;;;;;;;13.30;10.05;;;13.80;68.80;;;;;;5011454;28;20501;-45
2022/03/26 09:04:20;;;;;;;14.52;11.32;;;13.90;68.30;;;;;;5012314;28;20026;-44
2022/03/26 09:06:46;;;;;;;15.18;9.98;;;14.00;67.60;;;;;;5011926;28;20105;-43
2022/03/26 09:09:16;;;;;;;13.90;9.52;;;14.20;66.90;;;;;;5011012;28;20108;-45
2022/03/26 09:11:43;;;;;;;14.27;9.30;;;14.40;67.10;;;;;;5011675;28;20042;-45
2022/03/26 09:14:10;;;;;;;15.48;10.25;;;14.60;66.50;;;;;;5011666;28;20435;-45
2022/03/26 09:16:38;;;;;;;12.13;10.82;;;14.70;66.30;;;;;;5011020;28;20045;-45
2022/03/26 09:19:05;;;;;;;11.88;9.82;;;14.80;65.80;;;;;;5010298;28;20054;-44
2022/03/26 09:21:31;;;;;;;12.38;9.80;;;14.50;65.10;;;;;;5011182;28;20026;-44
2022/03/26 09:23:58;;;;;;;14.90;9.30;;;14.20;66.10;;;;;;5010103;28;20030;-44
2022/03/26 09:26:26;;;;;;;14.32;10.40;;;14.40;67.20;;;;;;5011011;28;20034;-46
2022/03/26 09:28:56;;;;;;;15.00;10.20;;;14.30;67.00;;;;;;5011041;28;20040;-44
2022/03/26 09:31:24;;;;;;;14.98;11.15;;;14.20;66.40;;;;;;5009825;28;20090;-46
2022/03/26 09:33:51;;;;;;;15.00;10.60;;;14.00;67.00;;;;;;5010919;28;20513;-43
2022/03/26 09:36:17;;;;;;;18.65;11.88;;;13.90;67.20;;;;;;5010705;28;20029;-44
2022/03/26 09:38:49;;;;;;;15.95;12.32;;;13.90;67.90;;;;;;5010968;28;20026;-45
2022/03/26 09:41:19;;;;;;;16.00;11.88;;;13.40;69.70;;;;;;5009950;28;20052;-45
2022/03/26 09:43:46;;;;;;;12.38;9.88;;;13.00;71.50;;;;;;4978650;28;20065;-44
2022/03/26 09:46:13;;;;;;;17.17;10.80;;;12.60;73.10;;;;;;5011125;28;20039;-44
2022/03/26 09:48:40;;;;;;;13.35;10.43;;;12.80;74.20;;;;;;5011073;28;20037;-45
2022/03/26 09:51:15;;;;;;;15.60;10.13;;;13.20;73.30;;;;;;5010840;28;20113;-47
2022/03/26 09:53:44;;;;;;;15.43;10.18;;;13.60;73.00;;;;;;5010363;28;20104;-44
2022/03/26 09:56:12;;;;;;;16.55;9.77;;;13.90;72.20;;;;;;5010757;28;20033;-46
2022/03/26 09:58:38;;;;;;;13.32;9.73;;;14.20;72.10;;;;;;4993223;28;20026;-46
2022/03/26 10:01:06;;;;;;;13.90;8.65;;;13.90;71.60;;;;;;5009730;28;20033;-45
2022/03/26 10:03:38;;;;;;;12.98;8.63;;;13.60;72.90;;;;;;5009634;28;20037;-47
2022/03/26 10:06:08;;;;;;;13.18;8.60;;;13.70;73.10;;;;;;5009508;28;20053;-44
2022/03/26 10:08:41;;;;;;;14.65;8.45;;;14.00;72.80;;;;;;5009420;28;20049;-44
2022/03/26 10:11:20;;;;;;;12.23;7.35;;;14.20;72.70;;;;;;5010253;28;20034;-46
2022/03/26 10:13:48;;;;;;;9.63;7.50;;;14.50;71.70;;;;;;5024604;28;20491;-44
2022/03/26 10:16:19;;;;;;;9.32;6.43;;;14.70;71.00;;;;;;5010695;28;20029;-44
2022/03/26 10:18:59;;;;;;;12.02;6.38;;;14.60;70.70;;;;;;5009139;28;20583;-45
2022/03/26 10:21:27;;;;;;;9.35;5.80;;;14.30;71.70;;;;;;4992812;28;20042;-44
2022/03/26 10:23:55;;;;;;;13.85;6.60;;;14.20;71.80;;;;;;4996452;28;20026;-44
2022/03/26 10:26:26;;;;;;;10.65;6.95;;;13.90;72.50;;;;;;5009682;28;20041;-44
2022/03/26 10:29:11;;;;;;;10.60;6.60;;;13.60;74.60;;;;;;5008673;28;20037;-44
2022/03/26 10:34:25;;;;;;;9.10;5.88;;;13.20;75.70;;;;;;5010087;28;20033;-45
2022/03/26 10:37:17;;;;;;;9.48;5.80;;;12.90;75.60;;;;;;5009407;28;20188;-44
2022/03/26 10:39:46;;;;;;;7.28;5.47;;;12.70;76.30;;;;;;5005025;28;20053;-44
2022/03/26 10:42:13;;;;;;;8.57;4.97;;;12.50;77.50;;;;;;5008448;28;20032;-43
2022/03/26 10:44:40;;;;;;;8.00;5.07;;;12.50;77.70;;;;;;5009346;28;20030;-43
2022/03/26 10:47:15;;;;;;;7.45;4.60;;;12.40;78.20;;;;;;5008603;28;20361;-44
2022/03/26 10:49:42;;;;;;;7.15;4.78;;;12.40;78.10;;;;;;5009360;28;20175;-44
2022/03/26 10:52:23;;;;;;;9.02;5.20;;;12.30;77.80;;;;;;5010033;28;20030;-44
2022/03/26 10:54:50;;;;;;;9.90;5.85;;;12.00;78.10;;;;;;5009721;28;20429;-43
2022/03/26 10:57:24;;;;;;;9.65;6.32;;;11.90;78.40;;;;;;5007676;28;20117;-43
2022/03/26 11:00:05;;;;;;;11.00;6.18;;;11.70;79.10;;;;;;4995734;28;20394;-48
2022/03/26 11:02:30;;;;;;;12.25;6.78;;;11.50;79.10;;;;;;5009563;28;20100;-43
2022/03/26 11:04:57;;;;;;;11.45;6.20;;;11.50;79.40;;;;;;5007768;28;20029;-45
2022/03/26 11:07:25;;;;;;;10.05;6.22;;;11.50;79.30;;;;;;5009397;28;20030;-43
2022/03/26 11:09:53;;;;;;;9.27;6.07;;;11.70;79.40;;;;;;5009980;28;20038;-44
2022/03/26 11:12:22;;;;;;;13.63;7.13;;;11.70;79.40;;;;;;5008996;28;20030;-43
2022/03/26 11:14:50;;;;;;;;;;;11.80;79.10;;;;;;5010353;28;20033;-44
2022/03/26 11:17:41;;;;;;;11.88;5.57;;;11.90;79.20;;;;;;5008838;28;19918;-45
2022/03/26 11:20:38;;;;;;;14.45;5.43;;;11.90;78.80;;;;;;5009548;28;20034;-45
2022/03/26 11:23:41;;;;;;;10.80;4.85;;;12.10;78.00;;;;;;5007944;28;20080;-48
2022/03/26 11:26:22;;;;;;;11.70;5.85;;;12.10;78.30;;;;;;5008465;28;20021;-44
2022/03/26 11:29:07;;;;;;;11.38;6.00;;;12.00;77.70;;;;;;5007941;28;20029;-45
2022/03/26 11:31:57;;;;;;;10.45;5.57;;;11.90;78.40;;;;;;5008854;28;20038;-45
2022/03/26 11:34:24;;;;;;;9.55;4.97;;;11.80;78.20;;;;;;5008404;28;20531;-45
2022/03/26 11:36:51;;;;;;;12.88;5.90;;;11.70;78.60;;;;;;5008720;28;20554;-44
2022/03/26 11:39:42;;;;;;;9.55;5.20;;;11.90;79.30;;;;;;5008559;28;20029;-44
2022/03/26 11:42:09;;;;;;;10.70;5.45;;;11.80;78.60;;;;;;5008491;28;20038;-46
2022/03/26 11:50:40;;;;;;;9.50;5.00;;;11.80;78.70;;;;;;5009990;28;20046;-45
2022/03/26 11:53:12;;;;;;;7.85;4.72;;;11.60;79.40;;;;;;5009428;28;20040;-44
2022/03/26 11:55:48;;;;;;;8.57;5.63;;;11.70;79.70;;;;;;5008446;28;20038;-46
2022/03/26 11:58:24;;;;;;;9.68;5.75;;;11.80;79.80;;;;;;5008412;28;20040;-44
2022/03/26 12:01:00;;;;;;;9.82;5.55;;;11.90;79.50;;;;;;5009229;28;20030;-44
2022/03/26 12:03:28;;;;;;;8.80;4.50;;;12.20;78.90;;;;;;5008608;28;20033;-48
2022/03/26 12:08:57;;;;;;;9.95;4.82;;;12.20;78.10;;;;;;5009493;28;20037;-46
2022/03/26 12:11:32;;;;;;;10.20;4.78;;;12.00;78.20;;;;;;5012049;28;20034;-45
2022/03/26 12:14:09;;;;;;;7.65;4.45;;;12.10;78.50;;;;;;5011653;28;20047;-44
2022/03/26 12:17:12;;;;;;;9.15;5.10;;;12.10;77.80;;;;;;5011959;28;20042;-49
2022/03/26 12:19:41;;;;;;;11.85;5.72;;;12.10;78.50;;;;;;5012201;28;20042;-43
2022/03/26 12:22:28;;;;;;;9.80;4.65;;;12.00;78.30;;;;;;5010706;28;20038;-47
2022/03/26 12:25:07;;;;;;;10.68;4.90;;;12.20;78.70;;;;;;5003643;28;20053;-45
2022/03/26 12:27:38;;;;;;;9.55;3.92;;;12.10;78.50;;;;;;5011513;28;20156;-45
2022/03/26 12:30:06;;;;;;;6.80;4.60;;;12.20;78.70;;;;;;5011854;28;20384;-47
2022/03/26 12:32:36;;;;;;;12.27;5.28;;;12.10;78.20;;;;;;5011468;28;20069;-46
2022/03/26 12:35:10;;;;;;;12.20;6.50;;;12.10;78.90;;;;;;5012483;28;20029;-46
2022/03/26 12:37:38;;;;;;;11.77;5.65;;;12.00;78.60;;;;;;5011079;28;20222;-45
2022/03/26 12:40:11;;;;;;;11.30;4.80;;;12.10;78.40;;;;;;5011533;28;20050;-46
2022/03/26 12:42:38;;;;;;;8.18;4.63;;;11.90;78.80;;;;;;5011865;28;20109;-47
2022/03/26 12:45:22;;;;;;;8.07;4.38;;;11.90;79.00;;;;;;5012289;28;20037;-45
2022/03/26 12:47:50;;;;;;;8.73;4.78;;;11.70;78.90;;;;;;5012489;28;20034;-47
2022/03/26 12:50:19;;;;;;;11.73;5.47;;;11.60;79.20;;;;;;5012653;28;20029;-44
2022/03/26 12:52:47;;;;;;;11.60;5.88;;;11.50;79.90;;;;;;4994842;28;20140;-45